createdAt,value
2023-02-04T00:00:06.928Z,21.40
2023-02-04T00:01:06.909Z,22.90
2023-02-04T00:02:06.920Z,21.30
2023-02-04T00:03:06.991Z,21.40
2023-02-04T00:04:06.870Z,24.00
2023-02-04T00:05:06.923Z,24.30
2023-02-04T00:06:06.950Z,23.50
2023-02-04T00:07:06.893Z,23.30
2023-02-04T00:08:06.843Z,23.20
2023-02-04T00:09:06.854Z,24.50
2023-02-04T00:10:06.816Z,24.30
2023-02-04T00:11:06.828Z,19.40
2023-02-04T00:12:06.836Z,20.50
2023-02-04T00:13:06.803Z,23.10
2023-02-04T00:14:06.781Z,22.30
2023-02-04T00:15:06.786Z,19.60
2023-02-04T00:16:06.839Z,22.60
2023-02-04T00:17:06.795Z,22.30
2023-02-04T00:18:06.758Z,21.20
2023-02-04T00:19:06.761Z,23.20
2023-02-04T00:20:06.748Z,22.20
2023-02-04T00:21:06.734Z,25.80
2023-02-04T00:22:06.746Z,24.10
2023-02-04T00:23:07.720Z,21.30
2023-02-04T00:24:06.718Z,24.40
2023-02-04T00:25:06.699Z,22.60
2023-02-04T00:26:06.711Z,23.00
2023-02-04T00:27:06.731Z,22.40
2023-02-04T00:28:06.714Z,20.10
2023-02-04T00:29:06.668Z,21.70
2023-02-04T00:30:06.816Z,26.40
2023-02-04T00:31:06.694Z,22.60
2023-02-04T00:32:06.753Z,26.20
2023-02-04T00:33:06.647Z,22.80
2023-02-04T00:34:06.649Z,23.70
2023-02-04T00:35:06.650Z,21.60
2023-02-04T00:36:06.629Z,21.40
2023-02-04T00:37:06.651Z,19.00
2023-02-04T00:38:06.619Z,20.30
2023-02-04T00:39:06.613Z,21.30
2023-02-04T00:40:06.609Z,21.10
2023-02-04T00:41:06.587Z,24.80
2023-02-04T00:42:06.624Z,25.40
2023-02-04T00:43:06.597Z,23.00
2023-02-04T00:44:06.572Z,21.30
2023-02-04T00:45:06.572Z,21.50
2023-02-04T00:46:06.604Z,23.80
2023-02-04T00:47:06.576Z,26.10
2023-02-04T00:48:06.545Z,24.60
2023-02-04T00:49:06.592Z,21.90
2023-02-04T00:50:06.561Z,22.10
2023-02-04T00:51:06.544Z,21.80
2023-02-04T00:52:06.559Z,25.20
2023-02-04T00:53:06.528Z,21.80
2023-02-04T00:54:06.494Z,23.90
2023-02-04T00:55:06.493Z,22.10
2023-02-04T00:56:06.489Z,21.70
2023-02-04T00:57:06.501Z,23.60
2023-02-04T00:58:06.511Z,23.50
2023-02-04T00:59:06.469Z,24.90
2023-02-04T01:00:06.521Z,24.80
2023-02-04T01:01:06.604Z,25.50
2023-02-04T01:02:06.495Z,26.70
2023-02-04T01:03:06.494Z,25.40
2023-02-04T01:04:07.444Z,23.00
2023-02-04T01:05:06.486Z,20.10
2023-02-04T01:06:06.420Z,21.80
2023-02-04T01:07:06.535Z,22.10
2023-02-04T01:08:06.431Z,20.60
2023-02-04T01:09:06.408Z,23.00
2023-02-04T01:10:06.434Z,23.60
2023-02-04T01:11:06.408Z,22.80
2023-02-04T01:12:06.411Z,27.70
2023-02-04T01:13:06.364Z,25.40
2023-02-04T01:14:06.364Z,24.70
2023-02-04T01:15:06.351Z,24.70
2023-02-04T01:16:06.418Z,23.20
2023-02-04T01:17:06.352Z,22.30
2023-02-04T01:18:06.385Z,21.80
2023-02-04T01:19:06.338Z,23.30
2023-02-04T01:20:06.340Z,24.70
2023-02-04T01:21:06.306Z,27.90
2023-02-04T01:22:06.293Z,25.80
2023-02-04T01:23:06.351Z,24.10
2023-02-04T01:24:06.273Z,24.70
2023-02-04T01:25:06.272Z,22.60
2023-02-04T01:26:06.251Z,26.40
2023-02-04T01:27:06.252Z,23.10
2023-02-04T01:28:06.443Z,22.70
2023-02-04T01:29:06.294Z,28.40
2023-02-04T01:30:06.232Z,26.40
2023-02-04T01:31:06.340Z,25.80
2023-02-04T01:32:06.272Z,24.20
2023-02-04T01:33:06.253Z,23.00
2023-02-04T01:34:06.206Z,22.40
2023-02-04T01:35:06.235Z,22.40
2023-02-04T01:36:06.246Z,24.00
2023-02-04T01:37:06.188Z,22.70
2023-02-04T01:38:06.219Z,22.50
2023-02-04T01:39:06.146Z,22.50
2023-02-04T01:40:07.261Z,22.80
2023-02-04T01:41:06.188Z,24.70
2023-02-04T01:42:06.181Z,23.70
2023-02-04T01:43:06.243Z,21.50
2023-02-04T01:44:06.159Z,25.30
2023-02-04T01:45:06.163Z,21.80
2023-02-04T01:46:06.256Z,18.30
2023-02-04T01:47:06.123Z,15.90
2023-02-04T01:48:06.123Z,18.30
2023-02-04T01:49:06.388Z,18.40
2023-02-04T01:50:06.252Z,17.00
2023-02-04T01:51:06.088Z,17.50
2023-02-04T01:52:06.092Z,17.50
2023-02-04T01:53:06.169Z,16.40
2023-02-04T01:54:06.061Z,15.40
2023-02-04T01:55:06.092Z,13.30
2023-02-04T01:56:06.079Z,12.40
2023-02-04T01:57:06.030Z,14.30
2023-02-04T01:58:06.062Z,14.80
2023-02-04T01:59:06.039Z,15.20
2023-02-04T02:00:06.203Z,15.00
2023-02-04T02:01:06.047Z,13.30
2023-02-04T02:02:06.462Z,15.30
2023-02-04T02:03:06.082Z,17.90
2023-02-04T02:04:05.985Z,14.80
2023-02-04T02:05:06.011Z,15.80
2023-02-04T02:06:06.003Z,16.00
2023-02-04T02:07:05.994Z,17.70
2023-02-04T02:08:06.037Z,17.80
2023-02-04T02:09:05.986Z,14.00
2023-02-04T02:10:05.931Z,16.30
2023-02-04T02:11:05.988Z,16.90
2023-02-04T02:12:05.924Z,17.20
2023-02-04T02:13:05.972Z,18.80
2023-02-04T02:14:05.949Z,17.80
2023-02-04T02:15:05.932Z,17.60
2023-02-04T02:16:05.939Z,16.90
2023-02-04T02:17:05.959Z,21.00
2023-02-04T02:18:05.941Z,17.80
2023-02-04T02:19:05.903Z,17.10
2023-02-04T02:20:05.879Z,21.70
2023-02-04T02:21:05.882Z,17.10
2023-02-04T02:22:05.851Z,14.90
2023-02-04T02:23:05.912Z,17.30
2023-02-04T02:24:06.845Z,15.30
2023-02-04T02:25:06.221Z,19.60
2023-02-04T02:26:05.830Z,14.50
2023-02-04T02:27:05.929Z,19.40
2023-02-04T02:28:05.943Z,16.90
2023-02-04T02:29:05.797Z,18.20
2023-02-04T02:30:05.819Z,17.60
2023-02-04T02:31:05.879Z,20.50
2023-02-04T02:32:05.788Z,19.00
2023-02-04T02:33:05.828Z,16.50
2023-02-04T02:34:05.780Z,17.90
2023-02-04T02:35:05.751Z,21.80
2023-02-04T02:36:05.776Z,18.80
2023-02-04T02:37:05.735Z,20.70
2023-02-04T02:38:05.874Z,20.20
2023-02-04T02:39:05.740Z,23.40
2023-02-04T02:40:05.785Z,20.70
2023-02-04T02:41:05.713Z,26.80
2023-02-04T02:42:05.730Z,25.50
2023-02-04T02:43:05.750Z,26.00
2023-02-04T02:44:05.689Z,17.90
2023-02-04T02:45:05.675Z,21.80
2023-02-04T02:46:05.791Z,17.60
2023-02-04T02:47:05.662Z,16.50
2023-02-04T02:48:05.693Z,21.40
2023-02-04T02:49:05.656Z,16.00
2023-02-04T02:50:05.681Z,20.80
2023-02-04T02:51:05.687Z,16.50
2023-02-04T02:52:05.724Z,19.60
2023-02-04T02:53:05.664Z,22.10
2023-02-04T02:54:05.598Z,19.20
2023-02-04T02:55:05.647Z,19.60
2023-02-04T02:56:05.875Z,18.60
2023-02-04T02:57:05.636Z,17.50
2023-02-04T02:58:05.614Z,18.80
2023-02-04T02:59:05.565Z,19.50
2023-02-04T03:00:05.724Z,19.80
2023-02-04T03:01:05.911Z,19.20
2023-02-04T03:02:05.712Z,19.60
2023-02-04T03:03:05.596Z,18.50
2023-02-04T03:04:05.557Z,18.90
2023-02-04T03:05:05.556Z,21.50
2023-02-04T03:06:05.531Z,19.40
2023-02-04T03:07:05.603Z,20.70
2023-02-04T03:08:05.665Z,18.90
2023-02-04T03:09:05.494Z,18.50
2023-02-04T03:10:05.504Z,20.00
2023-02-04T03:11:05.492Z,20.50
2023-02-04T03:12:05.463Z,18.60
2023-02-04T03:13:05.560Z,18.00
2023-02-04T03:14:05.471Z,20.10
2023-02-04T03:15:05.440Z,22.20
2023-02-04T03:16:05.624Z,16.20
2023-02-04T03:17:05.435Z,19.70
2023-02-04T03:18:05.544Z,19.60
2023-02-04T03:19:05.490Z,20.50
2023-02-04T03:20:05.476Z,20.00
2023-02-04T03:21:05.477Z,20.70
2023-02-04T03:22:05.474Z,19.60
2023-02-04T03:23:05.420Z,20.50
2023-02-04T03:24:05.413Z,23.20
2023-02-04T03:25:05.392Z,18.00
2023-02-04T03:26:05.430Z,20.00
2023-02-04T03:27:06.398Z,20.70
2023-02-04T03:28:05.487Z,23.10
2023-02-04T03:29:05.355Z,19.00
2023-02-04T03:30:05.373Z,22.00
2023-02-04T03:31:05.395Z,19.50
2023-02-04T03:32:05.331Z,21.00
2023-02-04T03:33:05.370Z,22.30
2023-02-04T03:34:05.371Z,22.40
2023-02-04T03:35:05.337Z,19.80
2023-02-04T03:36:05.324Z,20.90
2023-02-04T03:37:05.276Z,23.70
2023-02-04T03:38:05.320Z,21.40
2023-02-04T03:39:05.273Z,22.20
2023-02-04T03:40:05.317Z,19.70
2023-02-04T03:41:05.249Z,20.00
2023-02-04T03:42:05.302Z,22.10
2023-02-04T03:43:05.260Z,21.60
2023-02-04T03:44:05.319Z,23.90
2023-02-04T03:45:05.247Z,18.40
2023-02-04T03:46:05.330Z,23.70
2023-02-04T03:47:05.250Z,23.00
2023-02-04T03:48:05.221Z,22.80
2023-02-04T03:49:05.227Z,23.30
2023-02-04T03:50:05.225Z,20.60
2023-02-04T03:51:05.227Z,21.70
2023-02-04T03:52:05.393Z,18.90
2023-02-04T03:53:05.189Z,21.30
2023-02-04T03:54:05.202Z,24.30
2023-02-04T03:55:05.148Z,21.20
2023-02-04T03:56:05.157Z,18.60
2023-02-04T03:57:05.141Z,17.60
2023-02-04T03:58:05.162Z,20.10
2023-02-04T03:59:05.141Z,18.50
2023-02-04T04:00:05.133Z,18.10
2023-02-04T04:01:05.142Z,15.90
2023-02-04T04:02:05.116Z,20.10
2023-02-04T04:03:05.185Z,19.60
2023-02-04T04:04:05.249Z,17.70
2023-02-04T04:05:05.095Z,18.20
2023-02-04T04:06:05.061Z,16.80
2023-02-04T04:07:05.085Z,16.90
2023-02-04T04:08:05.045Z,16.40
2023-02-04T04:09:05.091Z,13.50
2023-02-04T04:10:05.030Z,15.60
2023-02-04T04:11:05.059Z,14.60
2023-02-04T04:12:05.048Z,17.00
2023-02-04T04:13:05.044Z,16.10
2023-02-04T04:14:05.051Z,17.90
2023-02-04T04:15:04.990Z,17.40
2023-02-04T04:16:05.141Z,16.00
2023-02-04T04:17:04.990Z,18.70
2023-02-04T04:18:05.000Z,14.60
2023-02-04T04:19:05.056Z,15.20
2023-02-04T04:20:04.995Z,13.90
2023-02-04T04:21:04.958Z,15.50
2023-02-04T04:22:04.957Z,15.90
2023-02-04T04:23:05.007Z,12.80
2023-02-04T04:24:04.988Z,15.80
2023-02-04T04:25:04.939Z,14.60
2023-02-04T04:26:04.969Z,17.20
2023-02-04T04:27:04.911Z,16.20
2023-02-04T04:28:04.941Z,17.70
2023-02-04T04:29:05.924Z,13.90
2023-02-04T04:30:04.968Z,15.10
2023-02-04T04:31:05.007Z,15.50
2023-02-04T04:32:04.922Z,14.40
2023-02-04T04:33:04.882Z,12.70
2023-02-04T04:34:04.952Z,16.00
2023-02-04T04:35:04.852Z,15.50
2023-02-04T04:36:04.852Z,16.60
2023-02-04T04:37:04.849Z,17.00
2023-02-04T04:38:04.822Z,15.50
2023-02-04T04:39:04.891Z,19.10
2023-02-04T04:40:05.869Z,17.70
2023-02-04T04:41:04.836Z,16.40
2023-02-04T04:42:04.794Z,15.40
2023-02-04T04:43:04.794Z,16.90
2023-02-04T04:44:04.812Z,14.40
2023-02-04T04:45:04.804Z,16.20
2023-02-04T04:46:04.782Z,16.40
2023-02-04T04:47:04.755Z,17.00
2023-02-04T04:48:04.769Z,15.90
2023-02-04T04:49:04.792Z,15.50
2023-02-04T04:50:04.788Z,16.90
2023-02-04T04:51:04.731Z,17.60
2023-02-04T04:52:04.726Z,16.50
2023-02-04T04:53:04.718Z,17.60
2023-02-04T04:54:04.793Z,14.40
2023-02-04T04:55:04.722Z,12.50
2023-02-04T04:56:04.854Z,16.90
2023-02-04T04:57:04.730Z,17.00
2023-02-04T04:58:04.708Z,15.90
2023-02-04T04:59:04.792Z,16.60
2023-02-04T05:00:04.708Z,14.20
2023-02-04T05:01:04.703Z,16.10
2023-02-04T05:02:04.638Z,17.00
2023-02-04T05:03:04.651Z,16.40
2023-02-04T05:04:04.723Z,17.00
2023-02-04T05:05:04.785Z,15.00
2023-02-04T05:06:04.630Z,17.40
2023-02-04T05:07:05.615Z,16.00
2023-02-04T05:08:04.588Z,13.90
2023-02-04T05:09:04.847Z,15.70
2023-02-04T05:10:04.657Z,17.90
2023-02-04T05:11:04.647Z,16.10
2023-02-04T05:12:04.652Z,16.70
2023-02-04T05:13:04.619Z,13.10
2023-02-04T05:14:04.709Z,14.40
2023-02-04T05:15:04.579Z,15.10
2023-02-04T05:16:04.595Z,14.70
2023-02-04T05:17:04.657Z,16.10
2023-02-04T05:18:04.596Z,19.80
2023-02-04T05:19:04.590Z,18.10
2023-02-04T05:20:04.517Z,20.00
2023-02-04T05:21:04.584Z,16.40
2023-02-04T05:22:04.584Z,17.10
2023-02-04T05:23:05.732Z,17.50
2023-02-04T05:24:05.507Z,16.40
2023-02-04T05:25:04.564Z,16.70
2023-02-04T05:26:04.468Z,18.90
2023-02-04T05:27:04.468Z,18.10
2023-02-04T05:28:04.601Z,20.00
2023-02-04T05:29:04.488Z,20.00
2023-02-04T05:30:04.519Z,19.70
2023-02-04T05:31:04.565Z,15.50
2023-02-04T05:32:04.545Z,15.00
2023-02-04T05:33:04.410Z,16.90
2023-02-04T05:34:04.466Z,14.50
2023-02-04T05:35:05.618Z,17.10
2023-02-04T05:36:05.401Z,22.50
2023-02-04T05:37:04.471Z,19.30
2023-02-04T05:38:04.404Z,18.20
2023-02-04T05:39:04.398Z,13.70
2023-02-04T05:40:04.354Z,17.70
2023-02-04T05:41:04.363Z,14.70
2023-02-04T05:42:04.376Z,17.40
2023-02-04T05:43:04.384Z,13.40
2023-02-04T05:44:04.409Z,18.20
2023-02-04T05:45:04.368Z,17.90
2023-02-04T05:46:04.460Z,17.40
2023-02-04T05:47:04.361Z,18.70
2023-02-04T05:48:04.370Z,15.90
2023-02-04T05:49:04.431Z,12.30
2023-02-04T05:50:04.381Z,15.90
2023-02-04T05:51:04.323Z,16.80
2023-02-04T05:52:04.335Z,14.80
2023-02-04T05:53:04.392Z,15.50
2023-02-04T05:54:04.397Z,13.00
2023-02-04T05:55:04.401Z,13.40
2023-02-04T05:56:04.317Z,12.80
2023-02-04T05:57:04.265Z,12.20
2023-02-04T05:58:04.268Z,13.40
2023-02-04T05:59:04.276Z,15.30
2023-02-04T06:00:04.259Z,11.20
2023-02-04T06:01:04.401Z,14.10
2023-02-04T06:02:04.252Z,13.10
2023-02-04T06:03:04.226Z,12.90
2023-02-04T06:04:04.285Z,11.50
2023-02-04T06:05:04.169Z,11.80
2023-02-04T06:06:04.384Z,13.00
2023-02-04T06:07:04.233Z,12.30
2023-02-04T06:08:04.178Z,11.90
2023-02-04T06:09:04.159Z,11.60
2023-02-04T06:10:04.262Z,10.70
2023-02-04T06:11:04.147Z,10.80
2023-02-04T06:12:04.105Z,11.80
2023-02-04T06:13:04.141Z,9.50
2023-02-04T06:14:04.204Z,11.20
2023-02-04T06:15:04.145Z,9.00
2023-02-04T06:16:04.087Z,8.50
2023-02-04T06:17:04.095Z,10.40
2023-02-04T06:18:04.092Z,13.60
2023-02-04T06:19:04.099Z,9.40
2023-02-04T06:20:04.115Z,16.80
2023-02-04T06:21:04.111Z,19.20
2023-02-04T06:22:04.106Z,14.30
2023-02-04T06:23:04.030Z,10.20
2023-02-04T06:24:05.439Z,13.90
2023-02-04T06:25:05.066Z,12.30
2023-02-04T06:26:04.058Z,14.10
2023-02-04T06:27:03.997Z,12.30
2023-02-04T06:28:04.181Z,11.90
2023-02-04T06:29:04.033Z,10.10
2023-02-04T06:30:04.018Z,8.10
2023-02-04T06:31:04.106Z,8.80
2023-02-04T06:32:04.120Z,10.00
2023-02-04T06:33:03.967Z,8.00
2023-02-04T06:34:03.935Z,7.50
2023-02-04T06:35:04.098Z,8.20
2023-02-04T06:36:03.954Z,6.80
2023-02-04T06:37:03.946Z,7.70
2023-02-04T06:38:03.910Z,7.30
2023-02-04T06:39:03.900Z,8.40
2023-02-04T06:40:03.922Z,5.40
2023-02-04T06:41:03.889Z,7.90
2023-02-04T06:42:03.899Z,9.10
2023-02-04T06:43:04.622Z,6.50
2023-02-04T06:44:04.930Z,5.00
2023-02-04T06:45:03.921Z,5.70
2023-02-04T06:46:04.007Z,6.10
2023-02-04T06:47:03.921Z,4.60
2023-02-04T06:48:04.005Z,6.00
2023-02-04T06:49:03.850Z,6.70
2023-02-04T06:50:03.910Z,6.40
2023-02-04T06:51:03.848Z,7.40
2023-02-04T06:52:03.821Z,5.80
2023-02-04T06:53:03.824Z,5.30
2023-02-04T06:54:03.857Z,3.30
2023-02-04T06:55:03.907Z,4.10
2023-02-04T06:56:03.877Z,3.70
2023-02-04T06:57:03.798Z,3.40
2023-02-04T06:58:03.781Z,3.10
2023-02-04T06:59:03.826Z,3.60
2023-02-04T07:00:03.822Z,4.20
2023-02-04T07:01:03.812Z,3.30
2023-02-04T07:02:03.728Z,2.00
2023-02-04T07:03:03.719Z,2.70
2023-02-04T07:04:03.740Z,3.90
2023-02-04T07:05:03.742Z,3.80
2023-02-04T07:06:03.700Z,2.70
2023-02-04T07:07:03.704Z,2.50
2023-02-04T07:08:03.688Z,2.20
2023-02-04T07:09:03.688Z,2.10
2023-02-04T07:10:03.717Z,2.40
2023-02-04T07:11:03.678Z,4.10
2023-02-04T07:12:03.651Z,2.10
2023-02-04T07:13:03.648Z,1.80
2023-02-04T07:14:03.646Z,2.40
2023-02-04T07:15:03.663Z,3.40
2023-02-04T07:16:03.770Z,2.00
2023-02-04T07:17:03.620Z,2.10
2023-02-04T07:18:03.605Z,1.70
2023-02-04T07:19:03.600Z,2.40
2023-02-04T07:20:03.618Z,2.20
2023-02-04T07:21:03.597Z,2.60
2023-02-04T07:22:03.608Z,2.80
2023-02-04T07:23:03.576Z,1.90
2023-02-04T07:24:03.565Z,4.60
2023-02-04T07:25:03.635Z,3.10
2023-02-04T07:26:03.562Z,2.70
2023-02-04T07:27:03.575Z,1.60
2023-02-04T07:28:03.548Z,2.60
2023-02-04T07:29:03.543Z,3.00
2023-02-04T07:30:03.549Z,3.20
2023-02-04T07:31:03.719Z,2.30
2023-02-04T07:32:03.609Z,2.90
2023-02-04T07:33:03.516Z,3.00
2023-02-04T07:34:03.490Z,3.10
2023-02-04T07:35:03.529Z,2.20
2023-02-04T07:36:03.489Z,3.60
2023-02-04T07:37:03.473Z,3.40
2023-02-04T07:38:03.457Z,2.90
2023-02-04T07:39:03.444Z,3.80
2023-02-04T07:40:03.474Z,2.10
2023-02-04T07:41:03.429Z,2.00
2023-02-04T07:42:03.411Z,2.00
2023-02-04T07:43:03.413Z,2.50
2023-02-04T07:44:03.416Z,2.30
2023-02-04T07:45:03.415Z,2.60
2023-02-04T07:46:03.424Z,3.50
2023-02-04T07:47:03.373Z,2.50
2023-02-04T07:48:03.373Z,3.00
2023-02-04T07:49:03.376Z,3.30
2023-02-04T07:50:03.387Z,3.10
2023-02-04T07:51:03.358Z,2.20
2023-02-04T07:52:03.342Z,3.60
2023-02-04T07:53:03.325Z,2.30
2023-02-04T07:54:03.365Z,2.20
2023-02-04T07:55:03.339Z,2.60
2023-02-04T07:56:03.310Z,2.70
2023-02-04T07:57:03.321Z,4.20
2023-02-04T07:58:03.294Z,2.90
2023-02-04T07:59:03.287Z,3.20
2023-02-04T08:00:03.304Z,2.60
2023-02-04T08:01:03.288Z,2.70
2023-02-04T08:02:03.270Z,3.10
2023-02-04T08:03:03.392Z,3.60
2023-02-04T08:04:03.250Z,4.20
2023-02-04T08:05:03.274Z,3.20
2023-02-04T08:06:03.235Z,2.70
2023-02-04T08:07:03.233Z,3.40
2023-02-04T08:08:03.219Z,2.30
2023-02-04T08:09:03.205Z,2.30
2023-02-04T08:10:03.242Z,3.30
2023-02-04T08:11:03.188Z,3.30
2023-02-04T08:12:03.193Z,2.50
2023-02-04T08:13:03.179Z,3.70
2023-02-04T08:14:03.181Z,3.30
2023-02-04T08:15:03.194Z,4.00
2023-02-04T08:16:03.193Z,2.60
2023-02-04T08:17:03.145Z,3.00
2023-02-04T08:18:03.140Z,2.80
2023-02-04T08:19:03.137Z,3.00
2023-02-04T08:20:03.191Z,3.10
2023-02-04T08:21:03.239Z,3.20
2023-02-04T08:22:03.125Z,3.20
2023-02-04T08:23:03.121Z,2.40
2023-02-04T08:24:03.112Z,3.30
2023-02-04T08:25:03.222Z,2.70
2023-02-04T08:26:03.172Z,3.30
2023-02-04T08:27:03.077Z,2.10
2023-02-04T08:28:03.144Z,3.10
2023-02-04T08:29:03.053Z,3.90
2023-02-04T08:30:03.164Z,3.10
2023-02-04T08:31:03.175Z,2.70
2023-02-04T08:32:03.129Z,2.40
2023-02-04T08:33:03.060Z,3.00
2023-02-04T08:34:03.071Z,4.00
2023-02-04T08:35:03.924Z,3.90
2023-02-04T08:36:03.037Z,3.20
2023-02-04T08:37:03.051Z,3.30
2023-02-04T08:38:03.037Z,3.20
2023-02-04T08:39:03.015Z,3.30
2023-02-04T08:40:03.075Z,3.40
2023-02-04T08:41:02.966Z,2.70
2023-02-04T08:42:02.992Z,4.00
2023-02-04T08:43:03.049Z,3.80
2023-02-04T08:44:03.049Z,3.10
2023-02-04T08:45:03.253Z,3.70
2023-02-04T08:46:03.043Z,4.70
2023-02-04T08:47:02.970Z,3.70
2023-02-04T08:48:02.964Z,2.70
2023-02-04T08:49:03.075Z,4.10
2023-02-04T08:50:03.027Z,3.40
2023-02-04T08:51:02.930Z,3.00
2023-02-04T08:52:02.931Z,3.20
2023-02-04T08:53:02.930Z,4.20
2023-02-04T08:54:02.941Z,3.40
2023-02-04T08:55:02.921Z,4.50
2023-02-04T08:56:02.884Z,4.60
2023-02-04T08:57:02.936Z,4.70
2023-02-04T08:58:02.932Z,3.70
2023-02-04T08:59:02.954Z,3.50
2023-02-04T09:00:02.880Z,5.00
2023-02-04T09:01:02.974Z,3.00
2023-02-04T09:02:02.903Z,4.70
2023-02-04T09:03:02.923Z,3.90
2023-02-04T09:04:02.838Z,5.50
2023-02-04T09:05:02.836Z,4.30
2023-02-04T09:06:02.873Z,4.60
2023-02-04T09:07:02.809Z,3.90
2023-02-04T09:08:02.803Z,5.20
2023-02-04T09:09:02.867Z,5.20
2023-02-04T09:10:02.831Z,5.20
2023-02-04T09:11:02.840Z,4.80
2023-02-04T09:12:02.784Z,3.70
2023-02-04T09:13:02.779Z,4.50
2023-02-04T09:14:02.831Z,4.80
2023-02-04T09:15:02.782Z,2.40
2023-02-04T09:16:03.138Z,3.40
2023-02-04T09:17:02.755Z,3.80
2023-02-04T09:18:02.757Z,4.00
2023-02-04T09:19:02.822Z,4.80
2023-02-04T09:20:02.726Z,4.00
2023-02-04T09:21:02.761Z,4.60
2023-02-04T09:22:02.755Z,3.00
2023-02-04T09:23:02.761Z,4.20
2023-02-04T09:24:02.710Z,4.00
2023-02-04T09:25:02.704Z,4.10
2023-02-04T09:26:02.750Z,3.50
2023-02-04T09:27:02.837Z,4.20
2023-02-04T09:28:02.745Z,3.50
2023-02-04T09:29:02.653Z,4.10
2023-02-04T09:30:02.650Z,4.50
2023-02-04T09:31:04.532Z,4.20
2023-02-04T09:32:03.714Z,3.90
2023-02-04T09:33:02.617Z,3.60
2023-02-04T09:34:02.687Z,3.70
2023-02-04T09:35:02.736Z,3.20
2023-02-04T09:36:02.765Z,4.20
2023-02-04T09:37:02.653Z,3.50
2023-02-04T09:38:02.608Z,3.40
2023-02-04T09:39:02.684Z,4.00
2023-02-04T09:40:02.578Z,4.40
2023-02-04T09:41:02.733Z,3.60
2023-02-04T09:42:02.692Z,3.10
2023-02-04T09:43:02.564Z,3.60
2023-02-04T09:44:02.619Z,3.50
2023-02-04T09:45:02.591Z,3.10
2023-02-04T09:46:02.655Z,3.70
2023-02-04T09:47:03.602Z,2.50
2023-02-04T09:48:02.519Z,3.10
2023-02-04T09:49:02.577Z,2.50
2023-02-04T09:50:02.545Z,2.70
2023-02-04T09:51:02.559Z,2.80
2023-02-04T09:52:02.628Z,1.60
2023-02-04T09:53:02.556Z,2.70
2023-02-04T09:54:02.559Z,2.30
2023-02-04T09:55:02.485Z,2.40
2023-02-04T09:56:02.524Z,8.60
2023-02-04T09:57:02.505Z,83.50
2023-02-04T09:58:02.434Z,23.70
2023-02-04T09:59:02.436Z,51.00
2023-02-04T10:00:02.562Z,62.30
2023-02-04T10:01:02.565Z,35.20
2023-02-04T10:02:02.470Z,20.30
2023-02-04T10:03:02.371Z,7.50
2023-02-04T10:04:02.545Z,4.30
2023-02-04T10:05:02.373Z,72.80
2023-02-04T10:06:02.449Z,45.10
2023-02-04T10:07:02.390Z,11.90
2023-02-04T10:08:02.369Z,5.00
2023-02-04T10:09:02.385Z,3.60
2023-02-04T10:10:02.332Z,4.50
2023-02-04T10:11:02.370Z,2.80
2023-02-04T10:12:02.355Z,2.80
2023-02-04T10:13:02.324Z,2.60
2023-02-04T10:14:02.406Z,3.50
2023-02-04T10:15:02.314Z,2.70
2023-02-04T10:16:02.406Z,3.90
2023-02-04T10:17:02.483Z,4.20
2023-02-04T10:18:02.269Z,3.90
2023-02-04T10:19:02.389Z,2.50
2023-02-04T10:20:02.284Z,2.50
2023-02-04T10:21:02.364Z,2.60
2023-02-04T10:22:02.368Z,3.00
2023-02-04T10:23:02.360Z,2.10
2023-02-04T10:24:02.293Z,2.00
2023-02-04T10:25:02.384Z,2.50
2023-02-04T10:26:02.339Z,2.10
2023-02-04T10:27:02.311Z,3.10
2023-02-04T10:28:02.450Z,2.90
2023-02-04T10:29:02.373Z,2.00
2023-02-04T10:30:02.185Z,2.10
2023-02-04T10:31:02.484Z,3.30
2023-02-04T10:32:02.194Z,1.90
2023-02-04T10:33:02.192Z,2.20
2023-02-04T10:34:02.260Z,2.40
2023-02-04T10:35:02.257Z,3.00
2023-02-04T10:36:02.179Z,1.50
2023-02-04T10:37:02.179Z,2.00
2023-02-04T10:38:02.184Z,2.10
2023-02-04T10:39:02.155Z,2.30
2023-02-04T10:40:02.244Z,1.70
2023-02-04T10:41:02.458Z,2.50
2023-02-04T10:42:02.106Z,1.80
2023-02-04T10:43:02.181Z,2.30
2023-02-04T10:44:02.230Z,3.30
2023-02-04T10:45:02.144Z,2.60
2023-02-04T10:46:02.218Z,2.80
2023-02-04T10:47:02.116Z,3.20
2023-02-04T10:48:02.062Z,2.10
2023-02-04T10:49:02.125Z,2.40
2023-02-04T10:50:02.031Z,1.90
2023-02-04T10:51:02.073Z,3.60
2023-02-04T10:52:02.087Z,1.90
2023-02-04T10:53:02.079Z,2.20
2023-02-04T10:54:02.030Z,3.40
2023-02-04T10:55:02.049Z,5.10
2023-02-04T10:56:02.197Z,2.80
2023-02-04T10:57:03.045Z,2.00
2023-02-04T10:58:02.035Z,1.60
2023-02-04T10:59:02.042Z,3.50
2023-02-04T11:00:02.010Z,1.50
2023-02-04T11:01:02.018Z,2.20
2023-02-04T11:02:02.054Z,2.20
2023-02-04T11:03:02.024Z,11.60
2023-02-04T11:04:01.992Z,10.80
2023-02-04T11:05:02.040Z,5.30
2023-02-04T11:06:01.932Z,11.30
2023-02-04T11:07:01.962Z,5.90
2023-02-04T11:08:01.924Z,1.70
2023-02-04T11:09:01.894Z,2.10
2023-02-04T11:10:01.912Z,4.50
2023-02-04T11:11:01.922Z,2.70
2023-02-04T11:12:01.931Z,4.20
2023-02-04T11:13:01.966Z,2.50
2023-02-04T11:14:01.910Z,3.20
2023-02-04T11:15:01.890Z,4.10
2023-02-04T11:16:01.938Z,4.30
2023-02-04T11:17:01.916Z,6.00
2023-02-04T11:18:01.825Z,3.70
2023-02-04T11:19:01.889Z,2.40
2023-02-04T11:20:01.869Z,5.20
2023-02-04T11:21:01.843Z,6.60
2023-02-04T11:22:01.949Z,4.30
2023-02-04T11:23:01.810Z,7.70
2023-02-04T11:24:01.779Z,10.30
2023-02-04T11:25:01.862Z,4.30
2023-02-04T11:26:01.808Z,2.60
2023-02-04T11:27:01.769Z,2.10
2023-02-04T11:28:01.852Z,5.50
2023-02-04T11:29:01.794Z,5.50
2023-02-04T11:30:01.768Z,5.20
2023-02-04T11:31:01.957Z,2.40
2023-02-04T11:32:01.925Z,2.30
2023-02-04T11:33:01.729Z,2.30
2023-02-04T11:34:01.735Z,1.50
2023-02-04T11:35:01.735Z,2.00
2023-02-04T11:36:01.697Z,2.30
2023-02-04T11:37:01.723Z,2.30
2023-02-04T11:38:01.706Z,4.50
2023-02-04T11:39:01.655Z,2.70
2023-02-04T11:40:01.660Z,1.90
2023-02-04T11:41:01.771Z,1.90
2023-02-04T11:42:01.803Z,2.30
2023-02-04T11:43:01.685Z,1.70
2023-02-04T11:44:01.641Z,3.20
2023-02-04T11:45:01.609Z,2.20
2023-02-04T11:46:01.644Z,1.80
2023-02-04T11:47:01.668Z,2.40
2023-02-04T11:48:01.581Z,4.20
2023-02-04T11:49:01.598Z,2.80
2023-02-04T11:50:01.581Z,2.00
2023-02-04T11:51:01.586Z,2.10
2023-02-04T11:52:01.593Z,1.70
2023-02-04T11:53:01.613Z,2.10
2023-02-04T11:54:01.612Z,2.90
2023-02-04T11:55:01.630Z,2.10
2023-02-04T11:56:01.590Z,2.40
2023-02-04T11:57:01.586Z,2.80
2023-02-04T11:58:01.584Z,2.50
2023-02-04T11:59:01.529Z,3.20
2023-02-04T12:00:01.654Z,7.10
2023-02-04T12:01:01.554Z,3.90
2023-02-04T12:02:01.571Z,1.60
2023-02-04T12:03:01.511Z,1.40
2023-02-04T12:04:01.621Z,3.10
2023-02-04T12:05:01.497Z,2.40
2023-02-04T12:06:01.449Z,2.30
2023-02-04T12:07:01.585Z,2.20
2023-02-04T12:08:01.434Z,1.60
2023-02-04T12:09:01.410Z,2.40
2023-02-04T12:10:01.428Z,1.50
2023-02-04T12:11:01.421Z,2.50
2023-02-04T12:12:01.395Z,5.00
2023-02-04T12:13:01.436Z,2.60
2023-02-04T12:14:01.397Z,4.60
2023-02-04T12:15:01.401Z,2.70
2023-02-04T12:16:01.426Z,1.60
2023-02-04T12:17:01.390Z,1.70
2023-02-04T12:18:01.383Z,1.50
2023-02-04T12:19:01.350Z,1.60
2023-02-04T12:20:01.333Z,1.80
2023-02-04T12:21:01.329Z,1.60
2023-02-04T12:22:01.344Z,1.40
2023-02-04T12:23:01.358Z,1.50
2023-02-04T12:24:01.323Z,2.70
2023-02-04T12:25:01.303Z,2.40
2023-02-04T12:26:01.401Z,1.40
2023-02-04T12:27:01.282Z,1.50
2023-02-04T12:28:01.372Z,2.40
2023-02-04T12:29:01.267Z,1.40
2023-02-04T12:30:01.264Z,1.80
2023-02-04T12:31:01.390Z,1.00
2023-02-04T12:32:01.321Z,1.60
2023-02-04T12:33:01.267Z,2.30
2023-02-04T12:34:01.221Z,3.60
2023-02-04T12:35:01.225Z,1.10
2023-02-04T12:36:01.205Z,1.60
2023-02-04T12:37:01.200Z,1.30
2023-02-04T12:38:01.219Z,1.60
2023-02-04T12:39:01.182Z,1.60
2023-02-04T12:40:01.167Z,4.40
2023-02-04T12:41:01.193Z,10.20
2023-02-04T12:42:01.190Z,2.80
2023-02-04T12:43:01.179Z,2.50
2023-02-04T12:44:01.161Z,1.30
2023-02-04T12:45:01.163Z,1.70
2023-02-04T12:46:01.137Z,7.70
2023-02-04T12:47:01.127Z,2.60
2023-02-04T12:48:01.209Z,1.30
2023-02-04T12:49:01.135Z,1.20
2023-02-04T12:50:01.095Z,1.60
2023-02-04T12:51:01.165Z,1.60
2023-02-04T12:52:01.135Z,2.00
2023-02-04T12:53:01.147Z,1.70
2023-02-04T12:54:01.092Z,1.90
2023-02-04T12:55:01.104Z,2.00
2023-02-04T12:56:01.041Z,1.50
2023-02-04T12:57:01.038Z,2.90
2023-02-04T12:58:01.099Z,2.60
2023-02-04T12:59:01.072Z,1.90
2023-02-04T13:00:01.019Z,1.90
2023-02-04T13:01:03.890Z,2.10
2023-02-04T13:02:01.084Z,1.60
2023-02-04T13:03:01.055Z,3.00
2023-02-04T13:04:01.018Z,2.20
2023-02-04T13:05:00.982Z,2.40